sensor_id;sensor_type;location;lat;lon;timestamp;temperature;humidity
66835;HTU21D;53743;51.100;5.874;2024-01-16T00:00:19;2.30;97.07
66835;HTU21D;53743;51.100;5.874;2024-01-16T00:01:21;2.23;97.11
66835;HTU21D;53743;51.100;5.874;2024-01-16T00:02:22;2.16;97.65
66835;HTU21D;53743;51.100;5.874;2024-01-16T00:03:24;2.19;97.67
66835;HTU21D;53743;51.100;5.874;2024-01-16T00:04:25;2.16;97.81
66835;HTU21D;53743;51.100;5.874;2024-01-16T00:05:31;2.14;98.03
66835;HTU21D;53743;51.100;5.874;2024-01-16T00:06:32;2.11;98.25
66835;HTU21D;53743;51.100;5.874;2024-01-16T00:07:37;2.13;98.37
66835;HTU21D;53743;51.100;5.874;2024-01-16T00:08:39;2.13;98.50
66835;HTU21D;53743;51.100;5.874;2024-01-16T00:09:41;2.19;98.53
66835;HTU21D;53743;51.100;5.874;2024-01-16T00:10:42;2.21;98.26
66835;HTU21D;53743;51.100;5.874;2024-01-16T00:11:44;2.27;97.89
66835;HTU21D;53743;51.100;5.874;2024-01-16T00:12:45;2.22;97.65
66835;HTU21D;53743;51.100;5.874;2024-01-16T00:13:47;2.24;97.76
66835;HTU21D;53743;51.100;5.874;2024-01-16T00:14:49;2.22;97.72
66835;HTU21D;53743;51.100;5.874;2024-01-16T00:15:51;2.20;98.06
66835;HTU21D;53743;51.100;5.874;2024-01-16T00:16:52;0.00;98.03
66835;HTU21D;53743;51.100;5.874;2024-01-16T00:17:54;2.17;0.00
66835;HTU21D;53743;51.100;5.874;2024-01-16T00:18:55;2.16;98.41
66835;HTU21D;53743;51.100;5.874;2024-01-16T00:19:57;2.15;98.47
66835;HTU21D;53743;51.100;5.874;2024-01-16T00:21:02;2.22;98.66
66835;HTU21D;53743;51.100;5.874;2024-01-16T00:22:05;2.19;98.52
66835;HTU21D;53743;51.100;5.874;2024-01-16T00:23:06;2.27;98.30
66835;HTU21D;53743;51.100;5.874;2024-01-16T00:24:08;2.25;97.84
66835;HTU21D;53743;51.100;5.874;2024-01-16T00:25:09;2.21;97.97
66835;HTU21D;53743;51.100;5.874;2024-01-16T00:26:20;2.23;98.01
66835;HTU21D;53743;51.100;5.874;2024-01-16T00:27:21;2.22;98.06
66835;HTU21D;53743;51.100;5.874;2024-01-16T00:28:23;2.25;97.64
66835;HTU21D;53743;51.100;5.874;2024-01-16T00:29:24;2.24;97.90
66835;HTU21D;53743;51.100;5.874;2024-01-16T00:30:25;2.23;97.97
66835;HTU21D;53743;51.100;5.874;2024-01-16T00:31:27;2.24;97.61
66835;HTU21D;53743;51.100;5.874;2024-01-16T00:32:28;2.27;97.61
66835;HTU21D;53743;51.100;5.874;2024-01-16T00:33:30;2.20;97.61
66835;HTU21D;53743;51.100;5.874;2024-01-16T00:34:31;2.21;97.57
66835;HTU21D;53743;51.100;5.874;2024-01-16T00:35:33;2.20;98.00
66835;HTU21D;53743;51.100;5.874;2024-01-16T00:36:36;2.16;97.96
66835;HTU21D;53743;51.100;5.874;2024-01-16T00:37:37;2.23;98.12
66835;HTU21D;53743;51.100;5.874;2024-01-16T00:38:40;2.24;97.84
66835;HTU21D;53743;51.100;5.874;2024-01-16T00:39:41;2.27;97.72
66835;HTU21D;53743;51.100;5.874;2024-01-16T00:40:43;2.24;97.07
66835;HTU21D;53743;51.100;5.874;2024-01-16T00:41:44;2.22;97.59
66835;HTU21D;53743;51.100;5.874;2024-01-16T00:42:45;2.20;97.75
66835;HTU21D;53743;51.100;5.874;2024-01-16T00:43:47;2.21;97.66
66835;HTU21D;53743;51.100;5.874;2024-01-16T00:44:48;0.00;97.46
66835;HTU21D;53743;51.100;5.874;2024-01-16T00:45:50;2.26;97.55
66835;HTU21D;53743;51.100;5.874;2024-01-16T00:46:51;2.20;97.39
66835;HTU21D;53743;51.100;5.874;2024-01-16T00:47:53;2.16;97.27
66835;HTU21D;53743;51.100;5.874;2024-01-16T00:48:54;2.19;97.44
66835;HTU21D;53743;51.100;5.874;2024-01-16T00:49:56;2.16;97.51
66835;HTU21D;53743;51.100;5.874;2024-01-16T00:50:57;2.16;98.03
66835;HTU21D;53743;51.100;5.874;2024-01-16T00:52:00;2.19;97.52
66835;HTU21D;53743;51.100;5.874;2024-01-16T00:53:01;2.22;97.91
66835;HTU21D;53743;51.100;5.874;2024-01-16T00:54:03;2.22;97.28
66835;HTU21D;53743;51.100;5.874;2024-01-16T00:55:07;2.24;97.23
66835;HTU21D;53743;51.100;5.874;2024-01-16T00:56:10;2.24;96.88
66835;HTU21D;53743;51.100;5.874;2024-01-16T00:57:12;0.00;97.45
66835;HTU21D;53743;51.100;5.874;2024-01-16T00:58:16;2.21;97.64
66835;HTU21D;53743;51.100;5.874;2024-01-16T00:59:17;2.24;97.10
66835;HTU21D;53743;51.100;5.874;2024-01-16T01:00:19;2.21;97.23
66835;HTU21D;53743;51.100;5.874;2024-01-16T01:01:20;2.29;97.19
66835;HTU21D;53743;51.100;5.874;2024-01-16T01:02:23;2.22;96.86
66835;HTU21D;53743;51.100;5.874;2024-01-16T01:03:24;2.23;97.54
66835;HTU21D;53743;51.100;5.874;2024-01-16T01:04:25;2.22;97.42
66835;HTU21D;53743;51.100;5.874;2024-01-16T01:05:27;2.31;97.13
66835;HTU21D;53743;51.100;5.874;2024-01-16T01:06:28;2.29;96.80
66835;HTU21D;53743;51.100;5.874;2024-01-16T01:07:32;2.26;96.96
66835;HTU21D;53743;51.100;5.874;2024-01-16T01:08:33;2.25;97.14
66835;HTU21D;53743;51.100;5.874;2024-01-16T01:09:35;2.26;97.02
66835;HTU21D;53743;51.100;5.874;2024-01-16T01:10:37;2.27;0.00
66835;HTU21D;53743;51.100;5.874;2024-01-16T01:11:38;2.25;97.13
66835;HTU21D;53743;51.100;5.874;2024-01-16T01:12:40;2.27;97.36
66835;HTU21D;53743;51.100;5.874;2024-01-16T01:13:41;2.29;97.36
66835;HTU21D;53743;51.100;5.874;2024-01-16T01:14:43;2.31;96.60
66835;HTU21D;53743;51.100;5.874;2024-01-16T01:15:44;2.30;97.00
66835;HTU21D;53743;51.100;5.874;2024-01-16T01:16:46;2.32;96.87
66835;HTU21D;53743;51.100;5.874;2024-01-16T01:17:48;2.35;97.08
66835;HTU21D;53743;51.100;5.874;2024-01-16T01:18:51;2.35;96.19
66835;HTU21D;53743;51.100;5.874;2024-01-16T01:19:52;2.29;96.71
66835;HTU21D;53743;51.100;5.874;2024-01-16T01:20:54;2.29;96.79
66835;HTU21D;53743;51.100;5.874;2024-01-16T01:21:55;2.35;96.66
66835;HTU21D;53743;51.100;5.874;2024-01-16T01:22:57;2.34;96.20
66835;HTU21D;53743;51.100;5.874;2024-01-16T01:24:00;2.35;96.64
66835;HTU21D;53743;51.100;5.874;2024-01-16T01:25:01;2.37;95.68
66835;HTU21D;53743;51.100;5.874;2024-01-16T01:26:03;2.38;95.76
66835;HTU21D;53743;51.100;5.874;2024-01-16T01:27:05;2.37;96.42
66835;HTU21D;53743;51.100;5.874;2024-01-16T01:28:06;2.39;95.77
66835;HTU21D;53743;51.100;5.874;2024-01-16T01:29:08;2.37;96.30
66835;HTU21D;53743;51.100;5.874;2024-01-16T01:30:10;2.39;95.40
66835;HTU21D;53743;51.100;5.874;2024-01-16T01:31:13;2.37;95.52
66835;HTU21D;53743;51.100;5.874;2024-01-16T01:32:14;2.38;96.08
66835;HTU21D;53743;51.100;5.874;2024-01-16T01:33:15;2.35;95.78
66835;HTU21D;53743;51.100;5.874;2024-01-16T01:34:17;2.38;95.51
66835;HTU21D;53743;51.100;5.874;2024-01-16T01:35:18;2.37;95.78
66835;HTU21D;53743;51.100;5.874;2024-01-16T01:36:21;2.46;94.96
66835;HTU21D;53743;51.100;5.874;2024-01-16T01:37:22;2.43;94.88
66835;HTU21D;53743;51.100;5.874;2024-01-16T01:38:25;2.37;95.22
66835;HTU21D;53743;51.100;5.874;2024-01-16T01:39:26;2.38;95.49
66835;HTU21D;53743;51.100;5.874;2024-01-16T01:40:28;2.36;95.18
66835;HTU21D;53743;51.100;5.874;2024-01-16T01:41:29;2.34;95.83
66835;HTU21D;53743;51.100;5.874;2024-01-16T01:42:31;2.35;95.91
66835;HTU21D;53743;51.100;5.874;2024-01-16T01:43:32;2.37;96.14
66835;HTU21D;53743;51.100;5.874;2024-01-16T01:44:34;2.38;96.04
66835;HTU21D;53743;51.100;5.874;2024-01-16T01:45:35;2.38;96.10
66835;HTU21D;53743;51.100;5.874;2024-01-16T01:46:37;2.38;96.32
66835;HTU21D;53743;51.100;5.874;2024-01-16T01:47:40;2.36;95.85
66835;HTU21D;53743;51.100;5.874;2024-01-16T01:48:46;2.39;96.23
66835;HTU21D;53743;51.100;5.874;2024-01-16T01:49:48;2.39;96.23
66835;HTU21D;53743;51.100;5.874;2024-01-16T01:50:51;2.32;95.59
66835;HTU21D;53743;51.100;5.874;2024-01-16T01:51:53;2.37;96.26
66835;HTU21D;53743;51.100;5.874;2024-01-16T01:52:56;2.37;95.88
66835;HTU21D;53743;51.100;5.874;2024-01-16T01:53:58;2.36;95.78
66835;HTU21D;53743;51.100;5.874;2024-01-16T01:55:03;2.32;96.17
66835;HTU21D;53743;51.100;5.874;2024-01-16T01:56:10;2.30;96.44
66835;HTU21D;53743;51.100;5.874;2024-01-16T01:57:15;2.32;96.46
66835;HTU21D;53743;51.100;5.874;2024-01-16T01:58:16;2.31;96.56
66835;HTU21D;53743;51.100;5.874;2024-01-16T01:59:22;2.31;96.62
66835;HTU21D;53743;51.100;5.874;2024-01-16T02:00:25;2.31;96.65
66835;HTU21D;53743;51.100;5.874;2024-01-16T02:01:29;2.38;96.68
66835;HTU21D;53743;51.100;5.874;2024-01-16T02:02:33;2.37;96.75
66835;HTU21D;53743;51.100;5.874;2024-01-16T02:03:41;2.36;96.84
66835;HTU21D;53743;51.100;5.874;2024-01-16T02:04:44;2.38;96.55
66835;HTU21D;53743;51.100;5.874;2024-01-16T02:05:47;2.40;96.10
66835;HTU21D;53743;51.100;5.874;2024-01-16T02:06:48;2.44;96.41
66835;HTU21D;53743;51.100;5.874;2024-01-16T02:07:50;2.46;95.82
66835;HTU21D;53743;51.100;5.874;2024-01-16T02:08:52;2.41;95.89
66835;HTU21D;53743;51.100;5.874;2024-01-16T02:09:55;2.44;95.97
66835;HTU21D;53743;51.100;5.874;2024-01-16T02:10:56;2.42;95.69
66835;HTU21D;53743;51.100;5.874;2024-01-16T02:11:58;2.43;95.64
66835;HTU21D;53743;51.100;5.874;2024-01-16T02:13:00;2.34;95.45
66835;HTU21D;53743;51.100;5.874;2024-01-16T02:14:01;2.30;96.48
66835;HTU21D;53743;51.100;5.874;2024-01-16T02:15:04;2.24;96.55
66835;HTU21D;53743;51.100;5.874;2024-01-16T02:16:17;2.32;97.20
66835;HTU21D;53743;51.100;5.874;2024-01-16T02:17:20;2.27;96.71
66835;HTU21D;53743;51.100;5.874;2024-01-16T02:18:21;2.29;97.29
66835;HTU21D;53743;51.100;5.874;2024-01-16T02:19:23;2.28;97.62
66835;HTU21D;53743;51.100;5.874;2024-01-16T02:20:26;2.21;97.77
66835;HTU21D;53743;51.100;5.874;2024-01-16T02:21:28;2.13;98.53
66835;HTU21D;53743;51.100;5.874;2024-01-16T02:22:38;2.14;98.58
66835;HTU21D;53743;51.100;5.874;2024-01-16T02:23:47;2.12;98.80
66835;HTU21D;53743;51.100;5.874;2024-01-16T02:24:49;2.11;98.86
66835;HTU21D;53743;51.100;5.874;2024-01-16T02:25:51;2.12;98.94
66835;HTU21D;53743;51.100;5.874;2024-01-16T02:26:53;2.11;98.90
66835;HTU21D;53743;51.100;5.874;2024-01-16T02:27:55;2.09;98.62
66835;HTU21D;53743;51.100;5.874;2024-01-16T02:28:56;0.00;99.16
66835;HTU21D;53743;51.100;5.874;2024-01-16T02:29:58;2.02;99.72
66835;HTU21D;53743;51.100;5.874;2024-01-16T02:30:59;2.01;99.80
66835;HTU21D;53743;51.100;5.874;2024-01-16T02:32:01;2.05;99.65
66835;HTU21D;53743;51.100;5.874;2024-01-16T02:33:04;2.03;99.86
66835;HTU21D;53743;51.100;5.874;2024-01-16T02:34:05;0.00;99.96
66835;HTU21D;53743;51.100;5.874;2024-01-16T02:35:07;2.01;100.29
66835;HTU21D;53743;51.100;5.874;2024-01-16T02:36:10;2.02;100.48
66835;HTU21D;53743;51.100;5.874;2024-01-16T02:37:11;2.03;100.12
66835;HTU21D;53743;51.100;5.874;2024-01-16T02:38:13;0.00;100.26
66835;HTU21D;53743;51.100;5.874;2024-01-16T02:39:15;1.99;100.14
66835;HTU21D;53743;51.100;5.874;2024-01-16T02:40:16;1.97;100.42
66835;HTU21D;53743;51.100;5.874;2024-01-16T02:41:18;2.01;100.52
66835;HTU21D;53743;51.100;5.874;2024-01-16T02:42:19;2.03;100.62
66835;HTU21D;53743;51.100;5.874;2024-01-16T02:43:21;2.07;100.54
66835;HTU21D;53743;51.100;5.874;2024-01-16T02:44:23;2.07;100.20
66835;HTU21D;53743;51.100;5.874;2024-01-16T02:45:25;2.06;100.14
66835;HTU21D;53743;51.100;5.874;2024-01-16T02:46:26;2.08;100.21
66835;HTU21D;53743;51.100;5.874;2024-01-16T02:47:28;2.07;100.05
66835;HTU21D;53743;51.100;5.874;2024-01-16T02:48:29;2.05;100.12
66835;HTU21D;53743;51.100;5.874;2024-01-16T02:49:31;2.09;100.24
66835;HTU21D;53743;51.100;5.874;2024-01-16T02:50:33;2.03;100.14
66835;HTU21D;53743;51.100;5.874;2024-01-16T02:51:35;1.96;99.95
66835;HTU21D;53743;51.100;5.874;2024-01-16T02:52:36;1.93;100.46
66835;HTU21D;53743;51.100;5.874;2024-01-16T02:53:38;1.92;100.29
66835;HTU21D;53743;51.100;5.874;2024-01-16T02:54:40;1.92;100.70
66835;HTU21D;53743;51.100;5.874;2024-01-16T02:55:42;1.93;100.69
66835;HTU21D;53743;51.100;5.874;2024-01-16T02:56:43;1.93;100.79
66835;HTU21D;53743;51.100;5.874;2024-01-16T02:57:45;1.97;100.73
66835;HTU21D;53743;51.100;5.874;2024-01-16T02:58:46;1.99;100.82
66835;HTU21D;53743;51.100;5.874;2024-01-16T02:59:48;2.02;100.61
66835;HTU21D;53743;51.100;5.874;2024-01-16T03:00:50;2.01;100.40
66835;HTU21D;53743;51.100;5.874;2024-01-16T03:01:51;2.00;100.45
66835;HTU21D;53743;51.100;5.874;2024-01-16T03:02:53;2.01;100.51
66835;HTU21D;53743;51.100;5.874;2024-01-16T03:03:54;1.97;100.35
66835;HTU21D;53743;51.100;5.874;2024-01-16T03:04:56;1.97;100.83
66835;HTU21D;53743;51.100;5.874;2024-01-16T03:05:57;2.01;100.80
66835;HTU21D;53743;51.100;5.874;2024-01-16T03:06:58;2.01;100.64
66835;HTU21D;53743;51.100;5.874;2024-01-16T03:08:00;2.06;100.31
66835;HTU21D;53743;51.100;5.874;2024-01-16T03:09:01;2.03;100.45
66835;HTU21D;53743;51.100;5.874;2024-01-16T03:10:05;2.03;100.48
66835;HTU21D;53743;51.100;5.874;2024-01-16T03:11:07;2.05;100.32
66835;HTU21D;53743;51.100;5.874;2024-01-16T03:12:09;2.07;100.29
66835;HTU21D;53743;51.100;5.874;2024-01-16T03:13:10;2.12;100.03
66835;HTU21D;53743;51.100;5.874;2024-01-16T03:14:12;2.10;99.83
66835;HTU21D;53743;51.100;5.874;2024-01-16T03:15:14;2.08;99.91
66835;HTU21D;53743;51.100;5.874;2024-01-16T03:16:16;2.03;98.97
66835;HTU21D;53743;51.100;5.874;2024-01-16T03:17:17;1.99;99.45
66835;HTU21D;53743;51.100;5.874;2024-01-16T03:18:19;2.00;99.27
66835;HTU21D;53743;51.100;5.874;2024-01-16T03:19:20;1.99;99.58
66835;HTU21D;53743;51.100;5.874;2024-01-16T03:20:22;1.97;99.42
66835;HTU21D;53743;51.100;5.874;2024-01-16T03:21:23;2.00;99.99
66835;HTU21D;53743;51.100;5.874;2024-01-16T03:22:25;1.98;99.75
66835;HTU21D;53743;51.100;5.874;2024-01-16T03:23:26;2.00;99.55
66835;HTU21D;53743;51.100;5.874;2024-01-16T03:24:28;1.99;99.26
66835;HTU21D;53743;51.100;5.874;2024-01-16T03:25:31;1.98;99.44
66835;HTU21D;53743;51.100;5.874;2024-01-16T03:26:39;1.95;98.84
66835;HTU21D;53743;51.100;5.874;2024-01-16T03:27:40;1.92;99.17
66835;HTU21D;53743;51.100;5.874;2024-01-16T03:28:42;1.96;99.34
66835;HTU21D;53743;51.100;5.874;2024-01-16T03:29:44;1.96;99.02
66835;HTU21D;53743;51.100;5.874;2024-01-16T03:30:46;1.96;99.23
66835;HTU21D;53743;51.100;5.874;2024-01-16T03:31:48;1.99;99.15
66835;HTU21D;53743;51.100;5.874;2024-01-16T03:32:49;1.97;98.82
66835;HTU21D;53743;51.100;5.874;2024-01-16T03:33:51;1.93;98.27
66835;HTU21D;53743;51.100;5.874;2024-01-16T03:34:52;1.90;97.65
66835;HTU21D;53743;51.100;5.874;2024-01-16T03:35:54;1.87;98.07
66835;HTU21D;53743;51.100;5.874;2024-01-16T03:36:55;1.84;98.16
66835;HTU21D;53743;51.100;5.874;2024-01-16T03:37:57;1.81;97.49
66835;HTU21D;53743;51.100;5.874;2024-01-16T03:38:58;1.77;97.60
66835;HTU21D;53743;51.100;5.874;2024-01-16T03:40:00;1.77;98.35
66835;HTU21D;53743;51.100;5.874;2024-01-16T03:41:04;1.77;97.96
66835;HTU21D;53743;51.100;5.874;2024-01-16T03:42:07;1.79;98.45
66835;HTU21D;53743;51.100;5.874;2024-01-16T03:43:09;1.80;98.18
66835;HTU21D;53743;51.100;5.874;2024-01-16T03:44:10;1.77;97.52
66835;HTU21D;53743;51.100;5.874;2024-01-16T03:45:11;1.76;97.90
66835;HTU21D;53743;51.100;5.874;2024-01-16T03:46:13;1.69;97.20
66835;HTU21D;53743;51.100;5.874;2024-01-16T03:47:14;1.71;98.01
66835;HTU21D;53743;51.100;5.874;2024-01-16T03:48:16;1.66;97.05
66835;HTU21D;53743;51.100;5.874;2024-01-16T03:49:17;1.64;97.23
66835;HTU21D;53743;51.100;5.874;2024-01-16T03:50:19;1.65;97.66
66835;HTU21D;53743;51.100;5.874;2024-01-16T03:51:20;1.64;97.65
66835;HTU21D;53743;51.100;5.874;2024-01-16T03:52:22;1.60;97.45
66835;HTU21D;53743;51.100;5.874;2024-01-16T03:53:23;1.60;97.61
66835;HTU21D;53743;51.100;5.874;2024-01-16T03:54:24;1.56;97.62
66835;HTU21D;53743;51.100;5.874;2024-01-16T03:55:27;1.56;97.43
66835;HTU21D;53743;51.100;5.874;2024-01-16T03:56:29;1.52;96.87
66835;HTU21D;53743;51.100;5.874;2024-01-16T03:57:31;1.49;96.56
66835;HTU21D;53743;51.100;5.874;2024-01-16T03:58:32;1.48;96.46
66835;HTU21D;53743;51.100;5.874;2024-01-16T03:59:36;1.47;97.10
66835;HTU21D;53743;51.100;5.874;2024-01-16T04:00:38;1.47;96.72
66835;HTU21D;53743;51.100;5.874;2024-01-16T04:01:40;1.43;96.28
66835;HTU21D;53743;51.100;5.874;2024-01-16T04:02:42;1.39;96.35
66835;HTU21D;53743;51.100;5.874;2024-01-16T04:03:44;1.38;95.94
66835;HTU21D;53743;51.100;5.874;2024-01-16T04:04:45;1.33;96.02
66835;HTU21D;53743;51.100;5.874;2024-01-16T04:05:47;1.32;0.00
66835;HTU21D;53743;51.100;5.874;2024-01-16T04:06:49;1.29;96.44
66835;HTU21D;53743;51.100;5.874;2024-01-16T04:07:51;1.27;95.56
66835;HTU21D;53743;51.100;5.874;2024-01-16T04:08:52;1.27;96.48
66835;HTU21D;53743;51.100;5.874;2024-01-16T04:09:54;1.26;95.81
66835;HTU21D;53743;51.100;5.874;2024-01-16T04:10:55;1.19;95.33
66835;HTU21D;53743;51.100;5.874;2024-01-16T04:11:59;1.14;95.84
66835;HTU21D;53743;51.100;5.874;2024-01-16T04:13:00;1.16;96.87
66835;HTU21D;53743;51.100;5.874;2024-01-16T04:14:02;1.16;96.75
66835;HTU21D;53743;51.100;5.874;2024-01-16T04:15:04;1.11;96.18
66835;HTU21D;53743;51.100;5.874;2024-01-16T04:16:07;1.06;96.40
66835;HTU21D;53743;51.100;5.874;2024-01-16T04:17:07;1.04;96.88
66835;HTU21D;53743;51.100;5.874;2024-01-16T04:18:10;1.07;97.34
66835;HTU21D;53743;51.100;5.874;2024-01-16T04:19:11;1.09;97.10
66835;HTU21D;53743;51.100;5.874;2024-01-16T04:20:13;1.10;97.18
66835;HTU21D;53743;51.100;5.874;2024-01-16T04:21:14;1.11;97.27
66835;HTU21D;53743;51.100;5.874;2024-01-16T04:22:16;1.12;97.29
66835;HTU21D;53743;51.100;5.874;2024-01-16T04:23:17;1.10;96.65
66835;HTU21D;53743;51.100;5.874;2024-01-16T04:24:19;1.12;97.18
66835;HTU21D;53743;51.100;5.874;2024-01-16T04:25:20;1.12;97.07
66835;HTU21D;53743;51.100;5.874;2024-01-16T04:26:22;1.13;97.01
66835;HTU21D;53743;51.100;5.874;2024-01-16T04:27:25;1.14;97.07
66835;HTU21D;53743;51.100;5.874;2024-01-16T04:28:27;1.16;97.00
66835;HTU21D;53743;51.100;5.874;2024-01-16T04:29:28;1.17;97.00
66835;HTU21D;53743;51.100;5.874;2024-01-16T04:30:30;1.18;97.07
66835;HTU21D;53743;51.100;5.874;2024-01-16T04:31:35;1.23;96.86
66835;HTU21D;53743;51.100;5.874;2024-01-16T04:32:41;1.26;96.62
66835;HTU21D;53743;51.100;5.874;2024-01-16T04:33:42;1.26;96.35
66835;HTU21D;53743;51.100;5.874;2024-01-16T04:34:43;1.25;95.36
66835;HTU21D;53743;51.100;5.874;2024-01-16T04:35:45;1.26;96.15
66835;HTU21D;53743;51.100;5.874;2024-01-16T04:36:46;1.28;96.09
66835;HTU21D;53743;51.100;5.874;2024-01-16T04:37:49;1.28;95.75
66835;HTU21D;53743;51.100;5.874;2024-01-16T04:38:50;1.27;96.01
66835;HTU21D;53743;51.100;5.874;2024-01-16T04:39:52;1.24;95.73
66835;HTU21D;53743;51.100;5.874;2024-01-16T04:40:54;1.21;96.07
66835;HTU21D;53743;51.100;5.874;2024-01-16T04:41:56;1.22;96.07
66835;HTU21D;53743;51.100;5.874;2024-01-16T04:42:58;1.20;96.05
66835;HTU21D;53743;51.100;5.874;2024-01-16T04:43:59;1.19;96.17
66835;HTU21D;53743;51.100;5.874;2024-01-16T04:45:01;1.18;96.17
66835;HTU21D;53743;51.100;5.874;2024-01-16T04:46:02;1.20;96.38
66835;HTU21D;53743;51.100;5.874;2024-01-16T04:47:05;1.22;96.45
66835;HTU21D;53743;51.100;5.874;2024-01-16T04:48:06;1.22;96.33
66835;HTU21D;53743;51.100;5.874;2024-01-16T04:49:09;1.20;95.79
66835;HTU21D;53743;51.100;5.874;2024-01-16T04:50:11;1.20;96.07
66835;HTU21D;53743;51.100;5.874;2024-01-16T04:51:12;1.19;96.25
66835;HTU21D;53743;51.100;5.874;2024-01-16T04:52:14;1.18;96.17
66835;HTU21D;53743;51.100;5.874;2024-01-16T04:53:16;1.21;96.22
66835;HTU21D;53743;51.100;5.874;2024-01-16T04:54:18;1.18;94.49
66835;HTU21D;53743;51.100;5.874;2024-01-16T04:55:20;1.17;95.77
66835;HTU21D;53743;51.100;5.874;2024-01-16T04:56:22;1.17;95.53
66835;HTU21D;53743;51.100;5.874;2024-01-16T04:57:23;1.13;95.39
66835;HTU21D;53743;51.100;5.874;2024-01-16T04:58:27;1.13;95.68
66835;HTU21D;53743;51.100;5.874;2024-01-16T04:59:28;1.11;95.87
66835;HTU21D;53743;51.100;5.874;2024-01-16T05:00:31;1.11;96.10
66835;HTU21D;53743;51.100;5.874;2024-01-16T05:01:32;1.11;95.82
66835;HTU21D;53743;51.100;5.874;2024-01-16T05:02:34;1.11;96.06
66835;HTU21D;53743;51.100;5.874;2024-01-16T05:03:35;1.10;95.77
66835;HTU21D;53743;51.100;5.874;2024-01-16T05:04:37;1.09;95.61
66835;HTU21D;53743;51.100;5.874;2024-01-16T05:05:38;1.12;95.73
66835;HTU21D;53743;51.100;5.874;2024-01-16T05:06:40;1.07;95.07
66835;HTU21D;53743;51.100;5.874;2024-01-16T05:07:42;1.06;95.05
66835;HTU21D;53743;51.100;5.874;2024-01-16T05:08:43;1.04;95.32
66835;HTU21D;53743;51.100;5.874;2024-01-16T05:09:45;1.04;95.61
66835;HTU21D;53743;51.100;5.874;2024-01-16T05:10:46;1.05;95.85
66835;HTU21D;53743;51.100;5.874;2024-01-16T05:11:48;1.06;95.94
66835;HTU21D;53743;51.100;5.874;2024-01-16T05:12:49;1.07;95.77
66835;HTU21D;53743;51.100;5.874;2024-01-16T05:13:53;1.09;95.72
66835;HTU21D;53743;51.100;5.874;2024-01-16T05:14:58;1.10;95.78
66835;HTU21D;53743;51.100;5.874;2024-01-16T05:16:00;1.08;95.85
66835;HTU21D;53743;51.100;5.874;2024-01-16T05:17:01;1.10;95.82
66835;HTU21D;53743;51.100;5.874;2024-01-16T05:18:03;1.09;95.84
66835;HTU21D;53743;51.100;5.874;2024-01-16T05:19:04;1.10;95.79
66835;HTU21D;53743;51.100;5.874;2024-01-16T05:20:07;1.09;95.68
66835;HTU21D;53743;51.100;5.874;2024-01-16T05:21:09;1.11;95.81
66835;HTU21D;53743;51.100;5.874;2024-01-16T05:22:11;1.11;95.70
66835;HTU21D;53743;51.100;5.874;2024-01-16T05:23:12;1.09;95.55
66835;HTU21D;53743;51.100;5.874;2024-01-16T05:24:14;1.10;95.72
66835;HTU21D;53743;51.100;5.874;2024-01-16T05:25:15;1.10;95.65
66835;HTU21D;53743;51.100;5.874;2024-01-16T05:26:18;1.09;95.68
66835;HTU21D;53743;51.100;5.874;2024-01-16T05:27:19;1.10;95.64
66835;HTU21D;53743;51.100;5.874;2024-01-16T05:28:21;1.11;95.73
66835;HTU21D;53743;51.100;5.874;2024-01-16T05:29:23;1.13;95.66
66835;HTU21D;53743;51.100;5.874;2024-01-16T05:30:25;1.11;95.01
66835;HTU21D;53743;51.100;5.874;2024-01-16T05:31:26;1.11;95.44
66835;HTU21D;53743;51.100;5.874;2024-01-16T05:32:28;1.12;95.53
66835;HTU21D;53743;51.100;5.874;2024-01-16T05:33:29;1.12;95.55
66835;HTU21D;53743;51.100;5.874;2024-01-16T05:34:30;1.11;95.52
66835;HTU21D;53743;51.100;5.874;2024-01-16T05:35:32;1.13;95.55
66835;HTU21D;53743;51.100;5.874;2024-01-16T05:36:33;1.14;95.58
66835;HTU21D;53743;51.100;5.874;2024-01-16T05:37:35;1.17;95.49
66835;HTU21D;53743;51.100;5.874;2024-01-16T05:38:36;1.16;95.26
66835;HTU21D;53743;51.100;5.874;2024-01-16T05:39:39;1.17;95.43
66835;HTU21D;53743;51.100;5.874;2024-01-16T05:40:40;1.17;95.30
66835;HTU21D;53743;51.100;5.874;2024-01-16T05:41:42;1.16;94.91
66835;HTU21D;53743;51.100;5.874;2024-01-16T05:42:44;1.18;94.65
66835;HTU21D;53743;51.100;5.874;2024-01-16T05:43:47;1.14;94.49
66835;HTU21D;53743;51.100;5.874;2024-01-16T05:44:50;1.13;94.59
66835;HTU21D;53743;51.100;5.874;2024-01-16T05:45:54;1.13;94.44
66835;HTU21D;53743;51.100;5.874;2024-01-16T05:46:55;1.13;94.25
66835;HTU21D;53743;51.100;5.874;2024-01-16T05:47:56;1.09;93.97
66835;HTU21D;53743;51.100;5.874;2024-01-16T05:48:58;1.08;94.05
66835;HTU21D;53743;51.100;5.874;2024-01-16T05:49:59;1.07;94.04
66835;HTU21D;53743;51.100;5.874;2024-01-16T05:51:01;1.05;93.95
66835;HTU21D;53743;51.100;5.874;2024-01-16T05:52:02;1.01;93.60
66835;HTU21D;53743;51.100;5.874;2024-01-16T05:53:04;0.98;94.01
66835;HTU21D;53743;51.100;5.874;2024-01-16T05:54:05;0.96;94.08
66835;HTU21D;53743;51.100;5.874;2024-01-16T05:55:07;0.93;94.17
66835;HTU21D;53743;51.100;5.874;2024-01-16T05:56:09;0.93;94.14
66835;HTU21D;53743;51.100;5.874;2024-01-16T05:57:10;0.92;94.12
66835;HTU21D;53743;51.100;5.874;2024-01-16T05:58:12;0.91;94.23
66835;HTU21D;53743;51.100;5.874;2024-01-16T05:59:15;0.90;93.09
66835;HTU21D;53743;51.100;5.874;2024-01-16T06:00:19;0.90;93.68
66835;HTU21D;53743;51.100;5.874;2024-01-16T06:01:23;0.87;92.84
66835;HTU21D;53743;51.100;5.874;2024-01-16T06:02:24;0.77;92.31
66835;HTU21D;53743;51.100;5.874;2024-01-16T06:03:26;0.73;92.34
66835;HTU21D;53743;51.100;5.874;2024-01-16T06:04:28;0.73;92.52
66835;HTU21D;53743;51.100;5.874;2024-01-16T06:05:30;0.68;93.32
66835;HTU21D;53743;51.100;5.874;2024-01-16T06:06:31;0.67;93.80
66835;HTU21D;53743;51.100;5.874;2024-01-16T06:07:33;0.69;93.22
66835;HTU21D;53743;51.100;5.874;2024-01-16T06:08:34;0.66;93.14
66835;HTU21D;53743;51.100;5.874;2024-01-16T06:09:38;0.62;93.24
66835;HTU21D;53743;51.100;5.874;2024-01-16T06:10:40;0.62;93.82
66835;HTU21D;53743;51.100;5.874;2024-01-16T06:11:42;0.64;93.99
66835;HTU21D;53743;51.100;5.874;2024-01-16T06:12:43;0.65;94.26
66835;HTU21D;53743;51.100;5.874;2024-01-16T06:13:45;0.68;93.85
66835;HTU21D;53743;51.100;5.874;2024-01-16T06:14:46;0.68;93.69
66835;HTU21D;53743;51.100;5.874;2024-01-16T06:15:49;0.66;93.68
66835;HTU21D;53743;51.100;5.874;2024-01-16T06:16:51;0.69;93.70
66835;HTU21D;53743;51.100;5.874;2024-01-16T06:17:53;0.73;93.80
66835;HTU21D;53743;51.100;5.874;2024-01-16T06:18:54;0.74;93.44
66835;HTU21D;53743;51.100;5.874;2024-01-16T06:19:56;0.71;92.72
66835;HTU21D;53743;51.100;5.874;2024-01-16T06:20:57;0.74;92.85
66835;HTU21D;53743;51.100;5.874;2024-01-16T06:21:59;0.74;93.24
66835;HTU21D;53743;51.100;5.874;2024-01-16T06:23:00;0.72;92.82
66835;HTU21D;53743;51.100;5.874;2024-01-16T06:24:02;0.73;93.22
66835;HTU21D;53743;51.100;5.874;2024-01-16T06:25:04;0.74;93.33
66835;HTU21D;53743;51.100;5.874;2024-01-16T06:26:07;0.75;92.95
66835;HTU21D;53743;51.100;5.874;2024-01-16T06:27:08;0.77;93.44
66835;HTU21D;53743;51.100;5.874;2024-01-16T06:28:10;0.79;93.65
66835;HTU21D;53743;51.100;5.874;2024-01-16T06:29:12;0.82;93.40
66835;HTU21D;53743;51.100;5.874;2024-01-16T06:30:14;0.86;93.49
66835;HTU21D;53743;51.100;5.874;2024-01-16T06:31:17;0.90;93.64